createdAt,value
2023-02-14T00:00:32.120Z,93277.58
2023-02-14T00:09:17.410Z,93275.14
2023-02-14T00:17:40.336Z,93273.45
2023-02-14T00:26:03.390Z,93277.23
2023-02-14T00:34:27.598Z,93275.00
2023-02-14T00:42:50.735Z,93278.54
2023-02-14T00:51:14.665Z,93274.76
2023-02-14T00:59:37.703Z,93267.23
2023-02-14T01:08:00.824Z,93261.37
2023-02-14T01:16:26.168Z,93271.79
2023-02-14T01:24:51.181Z,93265.19
2023-02-14T01:33:14.222Z,93265.40
2023-02-14T01:41:39.709Z,93256.71
2023-02-14T01:50:12.505Z,93247.55
2023-02-14T01:58:39.681Z,93235.39
2023-02-14T02:07:07.698Z,93228.17
2023-02-14T02:15:35.292Z,93215.31
2023-02-14T02:24:39.498Z,93200.21
2023-02-14T02:33:33.118Z,93180.73
2023-02-14T02:42:18.737Z,93175.59
2023-02-14T02:51:05.354Z,93178.62
2023-02-14T02:59:34.902Z,93180.14
2023-02-14T03:07:57.987Z,93166.33
2023-02-14T03:16:34.866Z,93155.34
2023-02-14T03:25:10.290Z,93144.80
2023-02-14T03:33:51.009Z,93134.15
2023-02-14T03:42:23.845Z,93132.25
2023-02-14T03:50:50.351Z,93113.83
2023-02-14T03:59:19.416Z,93102.45
2023-02-14T04:07:51.658Z,93082.59
2023-02-14T04:16:14.832Z,93078.95
2023-02-14T04:24:38.311Z,93067.64
2023-02-14T04:33:01.210Z,93059.12
2023-02-14T04:41:24.121Z,93036.29
2023-02-14T04:49:48.525Z,93016.27
2023-02-14T04:58:11.474Z,93000.63
2023-02-14T05:06:34.540Z,92984.20
2023-02-14T05:14:58.084Z,92982.83
2023-02-14T05:23:21.782Z,92967.66
2023-02-14T05:31:44.809Z,92961.02
2023-02-14T05:40:09.249Z,92938.08
2023-02-14T05:48:32.820Z,92916.02
2023-02-14T05:56:55.866Z,92900.33
2023-02-14T06:05:20.362Z,92891.22
2023-02-14T06:13:43.310Z,92884.61
2023-02-14T06:22:06.258Z,92865.66
2023-02-14T06:30:29.344Z,92856.09
2023-02-14T06:38:52.532Z,92874.09
2023-02-14T06:47:16.759Z,92871.63
2023-02-14T06:55:43.585Z,92872.97
2023-02-14T07:04:09.049Z,92881.38
2023-02-14T07:12:32.142Z,92893.33
2023-02-14T07:20:55.774Z,92892.19
2023-02-14T07:29:18.658Z,92893.41
2023-02-14T07:37:41.676Z,92925.42
2023-02-14T07:46:04.908Z,92963.70
2023-02-14T07:54:28.057Z,93005.57
2023-02-14T08:02:51.202Z,93018.55
2023-02-14T08:11:37.344Z,93054.11
2023-02-14T08:20:00.341Z,93085.56
2023-02-14T08:28:23.837Z,93106.41
2023-02-14T08:36:47.622Z,93123.08
2023-02-14T08:45:10.660Z,93166.34
2023-02-14T08:53:33.644Z,93208.87
2023-02-14T09:01:56.971Z,93228.95
2023-02-14T09:10:20.081Z,93243.53
2023-02-14T09:18:43.888Z,93265.16
2023-02-14T09:27:07.682Z,93287.40
2023-02-14T09:35:49.766Z,93302.74
2023-02-14T09:44:26.937Z,93342.40
2023-02-14T09:52:52.992Z,93389.90
2023-02-14T10:01:23.594Z,93427.91
2023-02-14T10:10:01.114Z,93416.59
2023-02-14T10:18:46.221Z,93427.95
2023-02-14T10:27:29.610Z,93428.73
2023-02-14T10:36:05.838Z,93460.98
2023-02-14T10:44:46.190Z,93511.17
2023-02-14T10:53:42.790Z,93533.45
2023-02-14T11:02:08.957Z,93497.92
2023-02-14T11:10:36.158Z,93457.02
2023-02-14T11:19:16.826Z,93467.52
2023-02-14T11:27:50.472Z,93481.10
2023-02-14T11:36:17.634Z,93462.18
2023-02-14T11:44:55.985Z,93474.98
2023-02-14T11:53:25.693Z,93464.94
2023-02-14T12:01:48.887Z,93477.13
2023-02-14T12:10:18.051Z,93465.69
2023-02-14T12:18:59.496Z,93463.37
2023-02-14T12:27:37.851Z,93417.07
2023-02-14T12:36:08.081Z,93387.83
2023-02-14T12:44:56.237Z,93366.52
2023-02-14T12:53:28.156Z,93385.04
2023-02-14T13:02:34.084Z,93385.16
2023-02-14T13:11:07.457Z,93395.91
2023-02-14T13:20:06.115Z,93397.52
2023-02-14T13:28:31.668Z,93392.74
2023-02-14T13:36:58.174Z,93392.06
2023-02-14T13:45:30.426Z,93383.01
2023-02-14T13:53:53.629Z,93355.73
2023-02-14T14:02:30.218Z,93354.41
2023-02-14T14:11:15.099Z,93328.47
2023-02-14T14:19:39.946Z,93302.37
2023-02-14T14:28:18.622Z,93279.16
2023-02-14T14:36:41.694Z,93247.05
2023-02-14T14:45:09.380Z,93247.92
2023-02-14T14:53:48.942Z,93234.17
2023-02-14T15:02:26.567Z,93228.05
2023-02-14T15:10:58.496Z,93204.83
2023-02-14T15:19:34.908Z,93193.66
2023-02-14T15:27:57.861Z,93185.50
2023-02-14T15:36:27.595Z,93181.84
2023-02-14T15:44:50.602Z,93173.95
2023-02-14T15:53:36.377Z,93161.34
2023-02-14T16:02:28.080Z,93165.89
2023-02-14T16:11:14.503Z,93154.53
2023-02-14T16:19:46.604Z,93153.42
2023-02-14T16:28:09.554Z,93149.52
2023-02-14T16:36:34.459Z,93144.68
2023-02-14T16:44:58.360Z,93156.20
2023-02-14T16:53:27.312Z,93157.12
2023-02-14T17:01:50.792Z,93138.97
2023-02-14T17:10:19.631Z,93133.16
2023-02-14T17:18:47.574Z,93133.76
2023-02-14T17:27:10.779Z,93120.58
2023-02-14T17:35:35.682Z,93112.14
2023-02-14T17:44:02.089Z,93117.11
2023-02-14T17:52:25.898Z,93109.48
2023-02-14T18:00:49.165Z,93103.42
2023-02-14T18:09:12.098Z,93109.71
2023-02-14T18:17:35.083Z,93104.05
2023-02-14T18:26:04.678Z,93106.92
2023-02-14T18:34:28.364Z,93120.17
2023-02-14T18:42:51.398Z,93111.83
2023-02-14T18:51:17.321Z,93096.09
2023-02-14T18:59:40.489Z,93109.92
2023-02-14T19:08:03.840Z,93144.91
2023-02-14T19:16:33.478Z,93143.71
2023-02-14T19:24:56.564Z,93153.98
2023-02-14T19:33:19.493Z,93177.60
2023-02-14T19:41:42.805Z,93178.27
2023-02-14T19:50:07.477Z,93176.61
2023-02-14T19:58:30.350Z,93205.05
2023-02-14T20:06:55.310Z,93203.58
2023-02-14T20:15:18.803Z,93181.68
2023-02-14T20:23:41.745Z,93174.67
2023-02-14T20:32:06.077Z,93190.23
2023-02-14T20:40:29.467Z,93193.20
2023-02-14T20:48:54.344Z,93169.72
2023-02-14T20:57:17.261Z,93178.40
2023-02-14T21:05:40.733Z,93190.56
2023-02-14T21:14:03.689Z,93181.59
2023-02-14T21:22:26.699Z,93175.79
2023-02-14T21:30:49.664Z,93187.83
2023-02-14T21:39:13.335Z,93196.14
2023-02-14T21:47:37.850Z,93176.46
2023-02-14T21:56:11.952Z,93159.26
2023-02-14T22:04:35.558Z,93179.04
2023-02-14T22:12:58.435Z,93179.41
2023-02-14T22:21:26.803Z,93158.81
2023-02-14T22:29:50.267Z,93155.34
2023-02-14T22:38:13.170Z,93177.75
2023-02-14T22:46:37.070Z,93167.23
2023-02-14T22:55:00.170Z,93135.20
2023-02-14T23:03:23.186Z,93130.58
2023-02-14T23:11:47.088Z,93151.92
2023-02-14T23:20:29.314Z,93163.56
2023-02-14T23:28:52.415Z,93151.26
2023-02-14T23:37:15.645Z,93150.30
2023-02-14T23:45:40.101Z,93168.94
2023-02-14T23:54:03.678Z,93173.80
